Time;durP1;ratioP1;P1;durP2;ratioP2;P2;SDS_P1;SDS_P2;PMS_P1;PMS_P2;Temp;Humidity;BMP_temperature;BMP_pressure;BME280_temperature;BME280_humidity;BME280_pressure;Samples;Min_cycle;Max_cycle;Signal;HPM_P1;HPM_P2
2024/01/29 00:00:54;;;;;;;;;;;17.30;62.60;;;;;;5020485;28;1144;-68
2024/01/29 00:03:20;;;;;;;;;;;17.30;62.50;;;;;;5019023;28;1564;-68
2024/01/29 00:05:45;;;;;;;;;;;17.30;62.50;;;;;;5018476;28;1894;-68
2024/01/29 00:08:11;;;;;;;;;;;17.20;63.30;;;;;;5025676;28;1373;-68
2024/01/29 00:10:36;;;;;;;;;;;17.30;62.60;;;;;;5020021;28;1433;-69
2024/01/29 00:13:02;;;;;;;;;;;17.20;62.50;;;;;;5017176;28;1292;-68
2024/01/29 00:15:27;;;;;;;;;;;17.30;62.60;;;;;;5019970;28;1512;-68
2024/01/29 00:17:53;;;;;;;;;;;17.30;62.60;;;;;;5017648;28;1461;-68
2024/01/29 00:20:18;;;;;;;;;;;17.20;62.50;;;;;;5018737;28;1456;-68
2024/01/29 00:22:44;;;;;;;;;;;17.20;62.50;;;;;;5020153;28;1720;-69
2024/01/29 00:25:09;;;;;;;;;;;17.30;62.60;;;;;;5020575;28;1902;-68
2024/01/29 00:27:34;;;;;;;;;;;17.20;62.50;;;;;;5019423;28;1359;-68
2024/01/29 00:30:01;;;;;;;;;;;17.20;62.50;;;;;;5020411;28;1467;-68
2024/01/29 00:32:27;;;;;;;;;;;17.30;62.70;;;;;;5018243;28;1326;-68
2024/01/29 00:34:53;;;;;;;;;;;17.20;62.60;;;;;;5018898;28;1496;-67
2024/01/29 00:37:26;;;;;;;;;;;17.20;62.60;;;;;;5019805;28;1714;-66
2024/01/29 00:39:51;;;;;;;;;;;17.20;62.60;;;;;;5020280;28;929;-68
2024/01/29 00:42:17;;;;;;;;;;;17.20;62.60;;;;;;5018678;28;1059;-67
2024/01/29 00:44:44;;;;;;;;;;;17.20;62.60;;;;;;5018538;28;1344;-67
2024/01/29 00:47:10;;;;;;;;;;;17.20;62.60;;;;;;5021228;28;1960;-68
2024/01/29 00:49:35;;;;;;;;;;;17.30;62.70;;;;;;5015875;28;1469;-68
2024/01/29 00:52:04;;;;;;;;;;;17.30;62.70;;;;;;5019049;28;1380;-68
2024/01/29 00:54:29;;;;;;;;;;;17.30;62.60;;;;;;5020095;28;1646;-68
2024/01/29 00:56:55;;;;;;;;;;;17.20;62.60;;;;;;5019314;28;1344;-68
2024/01/29 00:59:20;;;;;;;;;;;17.30;62.70;;;;;;5016404;28;1356;-68
2024/01/29 01:01:46;;;;;;;;;;;17.20;62.60;;;;;;5018283;28;1799;-68
2024/01/29 01:04:11;;;;;;;;;;;17.20;62.60;;;;;;5015309;28;1469;-67
2024/01/29 01:06:37;;;;;;;;;;;17.20;62.60;;;;;;5017973;28;1902;-68
2024/01/29 01:09:03;;;;;;;;;;;17.20;62.70;;;;;;5018621;28;1327;-67
2024/01/29 01:11:28;;;;;;;;;;;17.20;62.60;;;;;;5021526;28;1568;-68
2024/01/29 01:13:54;;;;;;;;;;;17.30;62.70;;;;;;5023081;28;1531;-68
2024/01/29 01:16:19;;;;;;;;;;;17.20;62.60;;;;;;5019394;28;1451;-68
2024/01/29 01:18:45;;;;;;;;;;;17.20;62.60;;;;;;5019900;28;1309;-67
2024/01/29 01:21:10;;;;;;;;;;;17.20;62.60;;;;;;5021899;28;1582;-67
2024/01/29 01:23:37;;;;;;;;;;;17.20;62.60;;;;;;5025222;28;1557;-68
2024/01/29 01:26:02;;;;;;;;;;;17.20;62.70;;;;;;5021349;28;1894;-69
2024/01/29 01:28:27;;;;;;;;;;;17.20;62.60;;;;;;5029429;28;1508;-69
2024/01/29 01:30:53;;;;;;;;;;;17.20;62.60;;;;;;5023851;28;1497;-68
2024/01/29 01:33:19;;;;;;;;;;;17.20;62.60;;;;;;5022338;28;1446;-69
2024/01/29 01:35:44;;;;;;;;;;;17.20;62.60;;;;;;5024015;28;1309;-69
2024/01/29 01:38:10;;;;;;;;;;;17.20;62.60;;;;;;5021129;28;1341;-70
2024/01/29 01:40:35;;;;;;;;;;;17.20;62.70;;;;;;5022452;28;1633;-69
2024/01/29 01:43:11;;;;;;;;;;;17.20;62.60;;;;;;5021326;28;1251;-68
2024/01/29 01:45:36;;;;;;;;;;;17.20;62.70;;;;;;5012876;28;1899;-70
2024/01/29 01:48:02;;;;;;;;;;;17.20;62.60;;;;;;5021126;28;1300;-69
2024/01/29 01:50:27;;;;;;;;;;;17.20;62.60;;;;;;5023576;28;1307;-68
2024/01/29 01:52:52;;;;;;;;;;;17.20;62.70;;;;;;5022459;28;1712;-67
2024/01/29 01:55:18;;;;;;;;;;;17.20;62.70;;;;;;5023105;28;1627;-68
2024/01/29 01:57:43;;;;;;;;;;;17.20;62.60;;;;;;5023657;28;1462;-68
2024/01/29 02:00:11;;;;;;;;;;;17.20;62.70;;;;;;5022744;28;1428;-68
2024/01/29 02:02:36;;;;;;;;;;;17.20;62.70;;;;;;5021133;28;1582;-68
2024/01/29 02:05:02;;;;;;;;;;;17.20;62.70;;;;;;5019562;28;1949;-68
2024/01/29 02:07:27;;;;;;;;;;;17.20;62.70;;;;;;5023068;28;1340;-68
2024/01/29 02:09:53;;;;;;;;;;;17.20;62.70;;;;;;5022035;28;1259;-67
2024/01/29 02:12:20;;;;;;;;;;;17.20;62.70;;;;;;5020255;28;1352;-67
2024/01/29 02:14:49;;;;;;;;;;;17.20;62.70;;;;;;5023244;28;1405;-67
2024/01/29 02:17:15;;;;;;;;;;;17.20;62.70;;;;;;5021686;28;1605;-67
2024/01/29 02:19:40;;;;;;;;;;;17.20;62.70;;;;;;5021201;28;1411;-67
2024/01/29 02:22:05;;;;;;;;;;;17.20;62.70;;;;;;5019887;28;1308;-67
2024/01/29 02:24:31;;;;;;;;;;;17.20;62.70;;;;;;5017432;28;1548;-67
2024/01/29 02:26:56;;;;;;;;;;;17.20;62.70;;;;;;5021035;28;1948;-67
2024/01/29 02:29:22;;;;;;;;;;;17.20;62.70;;;;;;5018782;28;1294;-66
2024/01/29 02:31:47;;;;;;;;;;;17.20;62.70;;;;;;5019758;28;1437;-67
2024/01/29 02:34:13;;;;;;;;;;;17.20;62.70;;;;;;5021300;28;1589;-67
2024/01/29 02:36:38;;;;;;;;;;;17.20;62.70;;;;;;5021572;28;1405;-67
2024/01/29 02:39:04;;;;;;;;;;;17.20;62.70;;;;;;5019069;28;1526;-68
2024/01/29 02:41:29;;;;;;;;;;;17.20;62.70;;;;;;5005520;28;1543;-68
2024/01/29 02:43:55;;;;;;;;;;;17.20;62.80;;;;;;5005466;28;1465;-68
2024/01/29 02:46:20;;;;;;;;;;;17.20;62.70;;;;;;5020944;28;1914;-67
2024/01/29 02:48:46;;;;;;;;;;;17.20;62.70;;;;;;5024070;28;1377;-67
2024/01/29 02:51:11;;;;;;;;;;;17.20;62.70;;;;;;5021926;28;1497;-69
2024/01/29 02:53:37;;;;;;;;;;;17.20;62.70;;;;;;5019268;28;1351;-71
2024/01/29 02:56:02;;;;;;;;;;;17.20;62.80;;;;;;5016765;28;1370;-69
2024/01/29 02:58:29;;;;;;;;;;;17.20;62.70;;;;;;5022343;28;1221;-69
2024/01/29 03:00:55;;;;;;;;;;;17.20;62.80;;;;;;5021155;28;1290;-69
2024/01/29 03:03:20;;;;;;;;;;;17.20;62.70;;;;;;5027703;28;1530;-70
2024/01/29 03:05:46;;;;;;;;;;;17.20;62.70;;;;;;5020574;28;1908;-69
2024/01/29 03:08:11;;;;;;;;;;;17.20;62.70;;;;;;5018450;28;1225;-69
2024/01/29 03:10:36;;;;;;;;;;;17.20;62.80;;;;;;5021895;28;1668;-69
2024/01/29 03:13:02;;;;;;;;;;;17.20;62.70;;;;;;5017339;28;1344;-69
2024/01/29 03:15:27;;;;;;;;;;;17.20;62.80;;;;;;5016028;28;1606;-69
2024/01/29 03:17:53;;;;;;;;;;;17.20;62.80;;;;;;5019147;28;1478;-69
2024/01/29 03:20:18;;;;;;;;;;;17.20;62.80;;;;;;5028002;28;1657;-69
2024/01/29 03:22:44;;;;;;;;;;;17.20;62.80;;;;;;5021157;28;1779;-69
2024/01/29 03:25:09;;;;;;;;;;;17.20;62.80;;;;;;5023205;28;1918;-69
2024/01/29 03:27:35;;;;;;;;;;;17.20;62.80;;;;;;5019660;28;1400;-68
2024/01/29 03:30:00;;;;;;;;;;;17.20;62.80;;;;;;5022739;28;1451;-68
2024/01/29 03:32:25;;;;;;;;;;;17.20;62.80;;;;;;5020743;28;1375;-68
2024/01/29 03:34:51;;;;;;;;;;;17.20;62.80;;;;;;5019327;28;1790;-68
2024/01/29 03:37:16;;;;;;;;;;;17.20;62.80;;;;;;5021621;28;1449;-68
2024/01/29 03:39:44;;;;;;;;;;;17.20;62.80;;;;;;5020343;28;1620;-69
2024/01/29 03:42:10;;;;;;;;;;;17.20;62.80;;;;;;5019833;28;1274;-68
2024/01/29 03:44:35;;;;;;;;;;;17.20;62.80;;;;;;5020059;28;1384;-69
2024/01/29 03:47:01;;;;;;;;;;;17.20;62.80;;;;;;5026432;28;1910;-69
2024/01/29 03:49:26;;;;;;;;;;;17.20;63.60;;;;;;5017382;28;1534;-69
2024/01/29 03:51:52;;;;;;;;;;;17.20;62.80;;;;;;5019971;28;1523;-69
2024/01/29 03:54:17;;;;;;;;;;;17.10;62.70;;;;;;5017572;28;1468;-69
2024/01/29 03:56:43;;;;;;;;;;;17.20;62.80;;;;;;5019108;28;1462;-69
2024/01/29 03:59:14;;;;;;;;;;;17.20;62.80;;;;;;5016691;28;1352;-69
2024/01/29 04:01:39;;;;;;;;;;;17.20;62.80;;;;;;5020020;28;1376;-69
2024/01/29 04:04:09;;;;;;;;;;;17.10;62.70;;;;;;5020487;28;1428;-69
2024/01/29 04:06:36;;;;;;;;;;;17.10;62.80;;;;;;5017972;28;1959;-69
2024/01/29 04:09:02;;;;;;;;;;;17.20;62.80;;;;;;5019395;28;1322;-69
2024/01/29 04:11:28;;;;;;;;;;;17.20;62.90;;;;;;5025797;28;1147;-69
2024/01/29 04:13:53;;;;;;;;;;;17.20;62.80;;;;;;5015818;28;899;-69
2024/01/29 04:16:21;;;;;;;;;;;17.10;63.60;;;;;;5015067;28;1345;-69
2024/01/29 04:18:47;;;;;;;;;;;17.10;62.80;;;;;;5018110;28;962;-69
2024/01/29 04:21:13;;;;;;;;;;;17.20;62.80;;;;;;5019836;28;1564;-69
2024/01/29 04:23:39;;;;;;;;;;;17.20;62.80;;;;;;5018529;28;1206;-69
2024/01/29 04:26:04;;;;;;;;;;;17.20;62.90;;;;;;5019692;28;1902;-69
2024/01/29 04:28:30;;;;;;;;;;;17.20;62.90;;;;;;5018013;28;1448;-69
2024/01/29 04:30:55;;;;;;;;;;;17.10;62.80;;;;;;5018787;28;1500;-69
2024/01/29 04:33:21;;;;;;;;;;;17.10;62.80;;;;;;5019141;28;1326;-69
2024/01/29 04:35:46;;;;;;;;;;;17.10;62.80;;;;;;5019232;28;1460;-69
2024/01/29 04:38:12;;;;;;;;;;;17.10;62.80;;;;;;5018490;28;1913;-69
2024/01/29 04:40:40;;;;;;;;;;;17.10;62.80;;;;;;5019694;28;1504;-69
2024/01/29 04:43:06;;;;;;;;;;;17.10;62.80;;;;;;5015714;28;1364;-69
2024/01/29 04:45:31;;;;;;;;;;;17.10;62.80;;;;;;5020343;28;1960;-69
2024/01/29 04:47:57;;;;;;;;;;;17.20;62.90;;;;;;5024177;28;1560;-69
2024/01/29 04:50:22;;;;;;;;;;;17.10;62.80;;;;;;5026785;28;1322;-69
2024/01/29 04:52:48;;;;;;;;;;;17.10;62.80;;;;;;5023067;28;1355;-69
2024/01/29 04:55:14;;;;;;;;;;;17.20;62.80;;;;;;5024806;28;1608;-70
2024/01/29 04:57:40;;;;;;;;;;;17.20;62.80;;;;;;5026253;28;1518;-70
2024/01/29 05:00:06;;;;;;;;;;;17.10;62.70;;;;;;5023423;28;1609;-70
2024/01/29 05:02:31;;;;;;;;;;;17.10;62.80;;;;;;5020114;28;1420;-69
2024/01/29 05:04:56;;;;;;;;;;;17.20;62.80;;;;;;5020849;28;1406;-70
2024/01/29 05:07:22;;;;;;;;;;;17.10;62.80;;;;;;5019752;28;1934;-68
2024/01/29 05:09:48;;;;;;;;;;;17.10;62.80;;;;;;5025350;28;1794;-68
2024/01/29 05:12:13;;;;;;;;;;;17.20;62.80;;;;;;5022210;28;1330;-67
2024/01/29 05:14:39;;;;;;;;;;;17.20;62.70;;;;;;5020539;28;1485;-68
2024/01/29 05:17:04;;;;;;;;;;;17.20;62.70;;;;;;5021737;28;1413;-67
2024/01/29 05:19:30;;;;;;;;;;;17.20;62.60;;;;;;5019221;28;1429;-68
2024/01/29 05:21:55;;;;;;;;;;;17.20;62.50;;;;;;5023003;28;1242;-68
2024/01/29 05:24:21;;;;;;;;;;;17.30;62.40;;;;;;5021390;28;1540;-68
2024/01/29 05:26:46;;;;;;;;;;;17.30;62.30;;;;;;5022462;28;1902;-67
2024/01/29 05:29:12;;;;;;;;;;;17.30;62.20;;;;;;5020640;28;1547;-68
2024/01/29 05:31:37;;;;;;;;;;;17.30;62.00;;;;;;5024302;28;1272;-68
2024/01/29 05:34:03;;;;;;;;;;;17.40;62.00;;;;;;5022129;28;1675;-69
2024/01/29 05:36:28;;;;;;;;;;;17.40;61.90;;;;;;5020869;28;1466;-68
2024/01/29 05:38:54;;;;;;;;;;;17.40;61.80;;;;;;5023029;28;1376;-67
2024/01/29 05:41:19;;;;;;;;;;;17.50;61.70;;;;;;5020590;28;1490;-68
2024/01/29 05:43:45;;;;;;;;;;;17.50;61.60;;;;;;5019656;28;1457;-68
2024/01/29 05:46:10;;;;;;;;;;;17.50;62.30;;;;;;5022321;28;1978;-68
2024/01/29 05:48:36;;;;;;;;;;;17.50;61.50;;;;;;5021469;28;1543;-68
2024/01/29 05:51:02;;;;;;;;;;;17.50;61.40;;;;;;5022862;28;1593;-70
2024/01/29 05:53:27;;;;;;;;;;;17.50;62.10;;;;;;5023031;28;1541;-67
2024/01/29 05:55:53;;;;;;;;;;;17.60;61.30;;;;;;5021893;28;1545;-68
2024/01/29 05:58:18;;;;;;;;;;;17.60;61.20;;;;;;5019054;28;1481;-68
2024/01/29 06:00:43;;;;;;;;;;;17.60;61.20;;;;;;5020526;28;1630;-68
2024/01/29 06:03:10;;;;;;;;;;;17.60;61.20;;;;;;5022040;28;1432;-67
2024/01/29 06:05:35;;;;;;;;;;;17.60;61.10;;;;;;5029630;28;1973;-68
2024/01/29 06:08:01;;;;;;;;;;;17.60;61.10;;;;;;5021543;28;1404;-67
2024/01/29 06:10:26;;;;;;;;;;;17.60;61.00;;;;;;5023406;28;1338;-69
2024/01/29 06:12:53;;;;;;;;;;;17.60;61.00;;;;;;5022494;28;1541;-67
2024/01/29 06:15:18;;;;;;;;;;;17.60;61.00;;;;;;5019958;28;1323;-67
2024/01/29 06:17:44;;;;;;;;;;;17.70;61.00;;;;;;5020193;28;1495;-68
2024/01/29 06:20:10;;;;;;;;;;;17.70;61.00;;;;;;5019406;28;1271;-68
2024/01/29 06:22:36;;;;;;;;;;;17.70;61.70;;;;;;5020437;28;1466;-67
2024/01/29 06:25:01;;;;;;;;;;;17.70;60.90;;;;;;5020466;28;1265;-68
2024/01/29 06:27:27;;;;;;;;;;;17.70;60.90;;;;;;5023065;28;1969;-68
2024/01/29 06:29:52;;;;;;;;;;;17.70;61.60;;;;;;5022750;28;1598;-68
2024/01/29 06:32:18;;;;;;;;;;;17.70;60.90;;;;;;5020552;28;1293;-68
2024/01/29 06:34:43;;;;;;;;;;;17.70;60.80;;;;;;5024500;28;1362;-68
2024/01/29 06:37:09;;;;;;;;;;;17.70;60.80;;;;;;5018550;28;1915;-69
2024/01/29 06:39:34;;;;;;;;;;;17.70;60.80;;;;;;5019287;28;1915;-67
2024/01/29 06:41:59;;;;;;;;;;;17.70;60.80;;;;;;5021027;28;1449;-68
2024/01/29 06:44:25;;;;;;;;;;;17.70;60.80;;;;;;5018436;28;1464;-69
2024/01/29 06:46:50;;;;;;;;;;;17.70;60.80;;;;;;5002562;28;1894;-68
2024/01/29 06:49:26;;;;;;;;;;;17.70;60.80;;;;;;5021184;28;1499;-68
2024/01/29 06:51:52;;;;;;;;;;;17.70;60.80;;;;;;5017536;28;1460;-68
2024/01/29 06:54:17;;;;;;;;;;;17.70;60.90;;;;;;5018002;28;1319;-69
2024/01/29 06:56:43;;;;;;;;;;;17.70;60.80;;;;;;5019219;28;1495;-69
2024/01/29 06:59:08;;;;;;;;;;;17.70;60.90;;;;;;5020646;28;1367;-68
2024/01/29 07:01:34;;;;;;;;;;;17.70;60.90;;;;;;5018720;28;1516;-68
2024/01/29 07:04:02;;;;;;;;;;;17.70;60.90;;;;;;5017316;28;1340;-68
2024/01/29 07:06:27;;;;;;;;;;;17.70;60.90;;;;;;5018202;28;1910;-69
2024/01/29 07:08:53;;;;;;;;;;;17.70;60.90;;;;;;5018082;28;1558;-69
2024/01/29 07:11:18;;;;;;;;;;;17.60;60.90;;;;;;5019609;28;1436;-69
2024/01/29 07:13:44;;;;;;;;;;;17.60;60.90;;;;;;5018464;28;1934;-70
2024/01/29 07:16:09;;;;;;;;;;;17.60;60.90;;;;;;5019383;28;1264;-69
2024/01/29 07:18:36;;;;;;;;;;;17.60;60.90;;;;;;5020931;28;1841;-68
2024/01/29 07:21:02;;;;;;;;;;;17.60;61.00;;;;;;5021616;28;1369;-68
2024/01/29 07:23:28;;;;;;;;;;;17.60;61.00;;;;;;5019334;28;1686;-69
2024/01/29 07:25:53;;;;;;;;;;;17.60;61.00;;;;;;5016553;28;1964;-69
2024/01/29 07:28:19;;;;;;;;;;;17.60;61.10;;;;;;5018671;28;1228;-68
2024/01/29 07:30:44;;;;;;;;;;;17.60;61.10;;;;;;5021103;28;1093;-69
2024/01/29 07:33:11;;;;;;;;;;;17.60;61.10;;;;;;5018574;28;1316;-68
2024/01/29 07:35:37;;;;;;;;;;;17.60;61.10;;;;;;5017897;28;1531;-67
2024/01/29 07:38:02;;;;;;;;;;;17.60;61.20;;;;;;5019971;28;1292;-70
2024/01/29 07:40:28;;;;;;;;;;;17.60;61.20;;;;;;5017968;28;1118;-68
2024/01/29 07:42:53;;;;;;;;;;;17.60;61.20;;;;;;5018017;28;1404;-67
2024/01/29 07:45:19;;;;;;;;;;;17.60;61.20;;;;;;5022281;28;1902;-68
2024/01/29 07:47:44;;;;;;;;;;;17.60;61.20;;;;;;5020142;28;1521;-68
2024/01/29 07:50:10;;;;;;;;;;;17.60;61.30;;;;;;5020818;28;1242;-67
2024/01/29 07:52:36;;;;;;;;;;;17.60;61.30;;;;;;5017891;28;1373;-69
2024/01/29 07:55:01;;;;;;;;;;;17.50;61.30;;;;;;5020414;28;1446;-69
2024/01/29 07:57:27;;;;;;;;;;;17.50;61.30;;;;;;5017152;28;1716;-67
2024/01/29 07:59:52;;;;;;;;;;;17.50;61.30;;;;;;5019566;28;1447;-69
2024/01/29 08:02:18;;;;;;;;;;;17.50;61.40;;;;;;5017768;28;879;-69
2024/01/29 08:04:43;;;;;;;;;;;17.50;61.40;;;;;;5021018;28;1468;-69
2024/01/29 08:07:09;;;;;;;;;;;17.50;61.40;;;;;;5017314;28;1918;-69
2024/01/29 08:09:34;;;;;;;;;;;17.50;61.40;;;;;;5019019;28;1546;-69
2024/01/29 08:12:00;;;;;;;;;;;17.50;61.40;;;;;;5019437;28;1263;-68
2024/01/29 08:14:25;;;;;;;;;;;17.50;61.50;;;;;;5018799;28;1468;-69
2024/01/29 08:16:51;;;;;;;;;;;17.50;61.50;;;;;;5020368;28;1870;-68
2024/01/29 08:19:16;;;;;;;;;;;17.50;61.50;;;;;;5018847;28;1641;-68
2024/01/29 08:21:42;;;;;;;;;;;17.50;61.50;;;;;;5018722;28;1240;-68
2024/01/29 08:24:07;;;;;;;;;;;17.50;61.60;;;;;;5018017;28;1480;-68
2024/01/29 08:26:33;;;;;;;;;;;17.50;61.60;;;;;;5016576;28;1890;-68
2024/01/29 08:28:58;;;;;;;;;;;17.50;61.60;;;;;;5019084;28;1354;-67
2024/01/29 08:31:24;;;;;;;;;;;17.50;61.60;;;;;;5019113;28;1348;-67
2024/01/29 08:33:49;;;;;;;;;;;17.50;61.60;;;;;;5018866;28;1428;-68
2024/01/29 08:36:15;;;;;;;;;;;17.50;61.60;;;;;;5019066;28;1555;-67
2024/01/29 08:38:41;;;;;;;;;;;17.40;61.60;;;;;;5019653;28;1426;-67
2024/01/29 08:41:06;;;;;;;;;;;17.40;61.60;;;;;;5017839;28;1890;-68
2024/01/29 08:43:32;;;;;;;;;;;17.40;61.60;;;;;;5025004;28;1418;-68
2024/01/29 08:45:57;;;;;;;;;;;17.40;61.60;;;;;;5018869;28;1902;-68
2024/01/29 08:48:23;;;;;;;;;;;17.40;61.70;;;;;;5019745;28;1432;-68
2024/01/29 08:50:48;;;;;;;;;;;17.40;61.70;;;;;;5016861;28;1667;-68
2024/01/29 08:53:14;;;;;;;;;;;17.40;61.70;;;;;;5019034;28;1328;-68
2024/01/29 08:55:39;;;;;;;;;;;17.40;61.70;;;;;;5018015;28;1462;-68
2024/01/29 08:58:05;;;;;;;;;;;17.40;62.40;;;;;;5026343;28;1573;-68
2024/01/29 09:00:32;;;;;;;;;;;17.40;61.70;;;;;;5015225;28;1465;-68
2024/01/29 09:02:57;;;;;;;;;;;17.40;61.80;;;;;;5014341;28;1417;-68
2024/01/29 09:05:23;;;;;;;;;;;17.40;61.70;;;;;;5018113;28;1915;-68
2024/01/29 09:07:48;;;;;;;;;;;17.40;61.70;;;;;;5017654;28;1516;-68
2024/01/29 09:10:14;;;;;;;;;;;17.40;61.70;;;;;;5016825;28;1524;-68
2024/01/29 09:12:39;;;;;;;;;;;17.40;61.70;;;;;;5018178;28;1514;-68
2024/01/29 09:15:05;;;;;;;;;;;17.40;61.60;;;;;;5019679;28;1684;-68
2024/01/29 09:17:30;;;;;;;;;;;17.50;61.60;;;;;;5018843;28;1498;-68
2024/01/29 09:19:57;;;;;;;;;;;17.50;61.60;;;;;;5019674;28;1325;-68
2024/01/29 09:22:22;;;;;;;;;;;17.50;61.50;;;;;;5017389;28;1455;-68
2024/01/29 09:24:48;;;;;;;;;;;17.50;61.50;;;;;;5020714;28;1578;-68
2024/01/29 09:27:13;;;;;;;;;;;17.50;61.40;;;;;;5016496;28;1910;-67
2024/01/29 09:29:38;;;;;;;;;;;17.50;61.40;;;;;;5014023;28;1482;-67
2024/01/29 09:32:04;;;;;;;;;;;17.50;52.40;;;;;;5023543;28;1211;-67
2024/01/29 09:34:30;;;;;;;;;;;17.40;46.10;;;;;;5023464;28;1235;-67
2024/01/29 09:36:55;;;;;;;;;;;17.40;43.70;;;;;;5023310;28;1301;-67
2024/01/29 09:39:23;;;;;;;;;;;17.30;42.60;;;;;;5020721;28;891;-67
2024/01/29 09:41:48;;;;;;;;;;;17.20;42.10;;;;;;5054837;28;1112;-67
2024/01/29 09:44:14;;;;;;;;;;;17.10;41.40;;;;;;5022221;28;1260;-68
2024/01/29 09:46:39;;;;;;;;;;;17.00;44.70;;;;;;5019587;28;1902;-68
2024/01/29 09:49:05;;;;;;;;;;;17.00;46.80;;;;;;5019607;28;1375;-68
2024/01/29 09:51:31;;;;;;;;;;;17.00;47.30;;;;;;5020508;28;1358;-68
2024/01/29 09:53:57;;;;;;;;;;;17.00;48.20;;;;;;5026159;28;2187;-68
2024/01/29 09:56:22;;;;;;;;;;;17.10;48.90;;;;;;5024981;28;1509;-68
2024/01/29 09:58:47;;;;;;;;;;;17.10;49.60;;;;;;5007428;28;1301;-68
2024/01/29 10:01:14;;;;;;;;;;;17.10;50.20;;;;;;5021176;28;1319;-69
2024/01/29 10:03:39;;;;;;;;;;;17.20;50.80;;;;;;5020214;28;1182;-68
2024/01/29 10:06:05;;;;;;;;;;;17.20;51.30;;;;;;5016741;28;1918;-68
2024/01/29 10:08:32;;;;;;;;;;;17.20;51.80;;;;;;5021464;28;1623;-68
2024/01/29 10:10:57;;;;;;;;;;;17.30;52.30;;;;;;5018507;28;1851;-68
2024/01/29 10:13:23;;;;;;;;;;;17.30;52.50;;;;;;5021851;28;1328;-68
2024/01/29 10:15:49;;;;;;;;;;;17.30;52.90;;;;;;5019442;28;1238;-68
2024/01/29 10:18:16;;;;;;;;;;;17.30;53.20;;;;;;5016625;28;986;-68
2024/01/29 10:20:41;;;;;;;;;;;17.40;53.40;;;;;;5018327;28;1377;-68
2024/01/29 10:23:07;;;;;;;;;;;17.40;53.70;;;;;;5020891;28;1449;-68
2024/01/29 10:25:34;;;;;;;;;;;17.40;53.90;;;;;;5028744;28;1934;-68
2024/01/29 10:28:18;;;;;;;;;;;17.40;54.10;;;;;;5018898;28;1557;-68
2024/01/29 10:30:43;;;;;;;;;;;17.50;54.40;;;;;;5020072;28;1990;-68
2024/01/29 10:33:08;;;;;;;;;;;17.50;54.60;;;;;;5018626;28;2099;-68
2024/01/29 10:35:37;;;;;;;;;;;17.40;54.70;;;;;;5016785;28;1406;-68
2024/01/29 10:38:06;;;;;;;;;;;17.50;54.90;;;;;;5021614;28;1450;-68
2024/01/29 10:40:31;;;;;;;;;;;17.50;55.00;;;;;;5019510;28;1442;-68
2024/01/29 10:42:57;;;;;;;;;;;17.50;55.10;;;;;;5018781;28;1983;-68
2024/01/29 10:45:23;;;;;;;;;;;17.50;55.20;;;;;;5018869;28;1914;-68
2024/01/29 10:47:49;;;;;;;;;;;17.50;55.30;;;;;;5019487;28;1416;-68
2024/01/29 10:50:18;;;;;;;;;;;17.50;55.50;;;;;;5012079;28;1486;-67
2024/01/29 10:52:44;;;;;;;;;;;17.50;55.50;;;;;;5021601;28;1440;-67
2024/01/29 10:55:10;;;;;;;;;;;17.60;55.70;;;;;;5020232;28;1321;-67
2024/01/29 10:57:36;;;;;;;;;;;17.60;55.80;;;;;;5022343;28;1353;-67
2024/01/29 11:00:01;;;;;;;;;;;17.60;55.80;;;;;;5021488;28;860;-67
2024/01/29 11:02:26;;;;;;;;;;;17.60;55.90;;;;;;5021055;28;1301;-67
2024/01/29 11:04:52;;;;;;;;;;;17.60;56.60;;;;;;5020119;28;1363;-67
2024/01/29 11:07:21;;;;;;;;;;;17.60;56.10;;;;;;5020417;28;1971;-67
2024/01/29 11:10:04;;;;;;;;;;;17.60;56.10;;;;;;5028658;28;1012;-67
2024/01/29 11:12:29;;;;;;;;;;;17.60;56.20;;;;;;5020122;28;1291;-67
2024/01/29 11:14:55;;;;;;;;;;;17.60;56.20;;;;;;5028797;28;961;-67
2024/01/29 11:17:21;;;;;;;;;;;17.60;56.20;;;;;;5015869;28;1570;-67
2024/01/29 11:19:50;;;;;;;;;;;17.60;56.30;;;;;;5015881;28;1721;-68
2024/01/29 11:22:15;;;;;;;;;;;17.60;56.30;;;;;;5020199;28;1551;-67
2024/01/29 11:24:41;;;;;;;;;;;17.60;56.40;;;;;;5020326;28;1511;-68
2024/01/29 11:27:07;;;;;;;;;;;17.60;56.40;;;;;;5020944;28;1997;-67
2024/01/29 11:29:38;;;;;;;;;;;17.60;56.50;;;;;;5021655;28;1466;-68
2024/01/29 11:32:04;;;;;;;;;;;17.60;56.50;;;;;;5019262;28;1267;-68
2024/01/29 11:34:30;;;;;;;;;;;17.60;56.60;;;;;;5015068;28;1572;-69
2024/01/29 11:36:56;;;;;;;;;;;17.60;56.60;;;;;;5019250;28;1647;-68
2024/01/29 11:39:24;;;;;;;;;;;17.60;56.70;;;;;;5017919;28;1463;-68
2024/01/29 11:41:50;;;;;;;;;;;17.60;56.70;;;;;;5020850;28;1276;-68
2024/01/29 11:44:18;;;;;;;;;;;17.70;56.70;;;;;;5019176;28;1215;-67
2024/01/29 11:46:44;;;;;;;;;;;17.60;56.70;;;;;;5022404;28;1969;-67
2024/01/29 11:49:09;;;;;;;;;;;17.60;56.80;;;;;;5019508;28;1132;-68
2024/01/29 11:51:35;;;;;;;;;;;17.60;56.80;;;;;;5016548;28;1557;-68
2024/01/29 11:54:00;;;;;;;;;;;17.70;56.80;;;;;;5020891;28;1130;-68
2024/01/29 11:56:25;;;;;;;;;;;17.70;56.90;;;;;;5020223;28;1302;-68
2024/01/29 11:59:01;;;;;;;;;;;17.70;56.90;;;;;;5021323;28;1275;-67
2024/01/29 12:01:27;;;;;;;;;;;17.70;57.00;;;;;;5018245;28;1255;-68
2024/01/29 12:03:53;;;;;;;;;;;17.70;57.00;;;;;;5017272;28;1662;-68
2024/01/29 12:06:18;;;;;;;;;;;17.70;57.10;;;;;;5017937;28;1965;-67
2024/01/29 12:08:47;;;;;;;;;;;17.70;57.10;;;;;;5019555;28;1346;-67
2024/01/29 12:11:14;;;;;;;;;;;17.70;57.10;;;;;;5017060;28;1238;-68
2024/01/29 12:13:40;;;;;;;;;;;17.70;57.20;;;;;;5017399;28;1359;-68
2024/01/29 12:16:06;;;;;;;;;;;17.70;57.20;;;;;;5016726;28;1477;-68
2024/01/29 12:18:31;;;;;;;;;;;17.60;57.30;;;;;;5026010;28;1076;-68
2024/01/29 12:20:57;;;;;;;;;;;17.60;57.40;;;;;;5020921;28;1568;-68
2024/01/29 12:23:22;;;;;;;;;;;17.60;57.30;;;;;;5019325;28;1340;-67
2024/01/29 12:25:55;;;;;;;;;;;17.60;57.40;;;;;;5019308;28;1903;-68
2024/01/29 12:28:20;;;;;;;;;;;17.60;57.50;;;;;;5017871;28;1320;-68
2024/01/29 12:30:53;;;;;;;;;;;17.60;57.50;;;;;;5021143;28;1508;-67
2024/01/29 12:33:18;;;;;;;;;;;17.60;57.50;;;;;;5019766;28;1129;-68
2024/01/29 12:35:44;;;;;;;;;;;17.60;57.60;;;;;;5019319;28;1496;-67
2024/01/29 12:38:11;;;;;;;;;;;17.60;57.60;;;;;;5018957;28;1313;-67
2024/01/29 12:40:37;;;;;;;;;;;17.60;57.70;;;;;;5018355;28;1427;-67
2024/01/29 12:43:03;;;;;;;;;;;17.60;57.70;;;;;;5020027;28;1266;-67
2024/01/29 12:45:28;;;;;;;;;;;17.60;57.80;;;;;;5019906;28;1898;-68
2024/01/29 13:00:07;;;;;;;;;;;17.50;58.00;;;;;;5018085;28;1235;-68
2024/01/29 13:02:33;;;;;;;;;;;17.50;58.00;;;;;;5016663;28;1338;-68
2024/01/29 13:04:58;;;;;;;;;;;17.50;58.10;;;;;;5018163;28;1331;-69
2024/01/29 13:07:25;;;;;;;;;;;17.50;58.10;;;;;;5019351;28;1961;-69
2024/01/29 13:09:50;;;;;;;;;;;17.50;58.20;;;;;;5023631;28;1228;-69
2024/01/29 13:12:16;;;;;;;;;;;17.50;58.20;;;;;;5020465;28;1510;-67
2024/01/29 13:14:43;;;;;;;;;;;17.50;58.20;;;;;;5021368;28;1453;-68
2024/01/29 13:17:08;;;;;;;;;;;17.50;58.30;;;;;;5023145;28;1483;-68
2024/01/29 13:19:34;;;;;;;;;;;17.50;58.30;;;;;;5021831;28;1412;-68
2024/01/29 13:22:00;;;;;;;;;;;17.50;58.30;;;;;;5021412;28;1693;-68
2024/01/29 13:24:26;;;;;;;;;;;17.50;58.40;;;;;;5019968;28;1663;-68
2024/01/29 13:26:51;;;;;;;;;;;17.50;58.40;;;;;;5025013;28;1898;-68
2024/01/29 13:29:17;;;;;;;;;;;17.50;58.50;;;;;;5022737;28;1309;-68
2024/01/29 13:31:42;;;;;;;;;;;17.50;58.50;;;;;;5025428;28;1136;-68
2024/01/29 13:34:08;;;;;;;;;;;17.50;58.50;;;;;;5023764;28;1275;-68
2024/01/29 13:36:33;;;;;;;;;;;17.50;58.50;;;;;;5022580;28;1280;-68
2024/01/29 13:38:59;;;;;;;;;;;17.40;58.50;;;;;;5021866;28;1109;-68
2024/01/29 13:41:24;;;;;;;;;;;17.40;58.60;;;;;;5021549;28;1191;-67
2024/01/29 13:43:50;;;;;;;;;;;17.40;58.60;;;;;;5022313;28;1246;-68
2024/01/29 13:46:17;;;;;;;;;;;17.40;58.60;;;;;;5023935;28;1962;-68
2024/01/29 13:48:42;;;;;;;;;;;17.40;58.60;;;;;;5007853;28;1476;-67
2024/01/29 13:51:08;;;;;;;;;;;17.40;58.70;;;;;;5018623;28;1544;-67
2024/01/29 13:53:33;;;;;;;;;;;17.40;58.70;;;;;;5019411;28;1545;-68
2024/01/29 13:55:59;;;;;;;;;;;17.40;58.70;;;;;;5021182;28;1270;-68
2024/01/29 13:58:24;;;;;;;;;;;17.40;58.70;;;;;;5021936;28;1216;-68
2024/01/29 14:00:50;;;;;;;;;;;17.40;58.80;;;;;;5021617;28;1923;-68
2024/01/29 14:03:15;;;;;;;;;;;17.40;58.80;;;;;;5023482;28;1314;-68
2024/01/29 14:05:41;;;;;;;;;;;17.40;58.80;;;;;;5021245;28;1973;-67
2024/01/29 14:08:06;;;;;;;;;;;17.40;58.80;;;;;;5019556;28;1375;-67
2024/01/29 14:10:35;;;;;;;;;;;17.40;58.90;;;;;;5019503;28;1446;-67
2024/01/29 14:13:02;;;;;;;;;;;17.40;58.90;;;;;;5020032;28;1674;-68
2024/01/29 14:15:28;;;;;;;;;;;17.40;59.00;;;;;;5018846;28;1731;-67
2024/01/29 14:17:53;;;;;;;;;;;17.40;59.00;;;;;;5019341;28;1293;-67
2024/01/29 14:20:19;;;;;;;;;;;17.40;59.00;;;;;;5020368;28;1468;-67
2024/01/29 14:22:44;;;;;;;;;;;17.40;59.00;;;;;;5022361;28;1687;-66
2024/01/29 14:25:10;;;;;;;;;;;17.40;59.10;;;;;;5019989;28;1350;-67
2024/01/29 14:27:35;;;;;;;;;;;17.40;59.10;;;;;;5019336;28;1965;-67
2024/01/29 14:30:00;;;;;;;;;;;17.40;59.10;;;;;;5018689;28;1811;-67
2024/01/29 14:32:28;;;;;;;;;;;17.40;59.20;;;;;;5019866;28;1560;-67
2024/01/29 14:34:54;;;;;;;;;;;17.40;59.20;;;;;;5020051;28;1329;-66